createdAt,value
2019-01-06T00:00:05.806Z,6.20
2019-01-06T00:02:38.926Z,6.20
2019-01-06T00:05:24.770Z,6.20
2019-01-06T00:08:04.118Z,6.20
2019-01-06T00:10:37.391Z,6.20
2019-01-06T00:13:19.812Z,6.20
2019-01-06T00:15:55.646Z,6.20
2019-01-06T00:18:28.831Z,6.20
2019-01-06T00:21:15.051Z,6.20
2019-01-06T00:23:54.458Z,6.20
2019-01-06T00:26:43.505Z,6.20
2019-01-06T00:29:25.866Z,6.30
2019-01-06T00:32:12.412Z,6.10
2019-01-06T00:34:55.138Z,6.10
2019-01-06T00:37:25.447Z,6.20
2019-01-06T00:40:12.405Z,6.20
2019-01-06T00:42:42.913Z,6.10
2019-01-06T00:45:25.391Z,6.10
2019-01-06T00:48:01.756Z,6.20
2019-01-06T00:50:46.917Z,6.20
2019-01-06T00:53:22.986Z,6.10
2019-01-06T00:55:59.561Z,6.20
2019-01-06T00:58:32.744Z,6.10
2019-01-06T01:01:18.343Z,6.10
2019-01-06T01:04:06.815Z,6.10
2019-01-06T01:06:46.356Z,6.10
2019-01-06T01:09:43.852Z,6.20
2019-01-06T01:12:30.449Z,6.20
2019-01-06T01:15:03.545Z,6.10
2019-01-06T01:17:49.961Z,6.10
2019-01-06T01:20:26.355Z,6.10
2019-01-06T01:22:57.058Z,6.00
2019-01-06T01:25:27.614Z,5.90
2019-01-06T01:28:14.850Z,6.00
2019-01-06T01:30:47.998Z,5.90
2019-01-06T01:33:27.280Z,5.90
2019-01-06T01:36:03.845Z,5.90
2019-01-06T01:38:46.510Z,5.80
2019-01-06T01:41:19.763Z,5.90
2019-01-06T01:43:59.000Z,5.90
2019-01-06T01:46:35.247Z,5.80
2019-01-06T01:49:21.533Z,5.80
2019-01-06T01:51:51.681Z,5.80
2019-01-06T01:54:27.762Z,5.80
2019-01-06T01:57:10.285Z,5.80
2019-01-06T01:59:53.131Z,5.80
2019-01-06T02:02:40.006Z,5.80
2019-01-06T02:05:26.862Z,5.70
2019-01-06T02:08:14.072Z,5.70
2019-01-06T02:10:53.303Z,5.70
2019-01-06T02:13:26.474Z,5.70
2019-01-06T02:16:12.952Z,5.70
2019-01-06T02:18:43.189Z,5.70
2019-01-06T02:21:25.270Z,5.70
2019-01-06T02:23:55.589Z,5.70
2019-01-06T02:26:34.821Z,5.70
2019-01-06T02:29:13.853Z,5.70
2019-01-06T02:31:53.717Z,5.70
2019-01-06T02:34:40.052Z,5.70
2019-01-06T02:37:10.316Z,5.60
2019-01-06T02:39:49.895Z,5.70
2019-01-06T02:42:38.099Z,5.70
2019-01-06T02:45:20.571Z,5.70
2019-01-06T02:48:06.791Z,5.70
2019-01-06T02:50:39.887Z,5.70
2019-01-06T02:53:13.405Z,5.60
2019-01-06T02:55:46.573Z,5.60
2019-01-06T02:58:23.143Z,5.70
2019-01-06T03:01:02.510Z,5.70
2019-01-06T03:03:51.246Z,5.70
2019-01-06T03:06:37.890Z,5.70
2019-01-06T03:09:14.757Z,5.70
2019-01-06T03:11:54.807Z,5.70
2019-01-06T03:14:37.511Z,5.70
2019-01-06T03:17:10.565Z,5.80
2019-01-06T03:19:43.951Z,5.70
2019-01-06T03:22:30.813Z,5.70
2019-01-06T03:25:06.764Z,5.70
2019-01-06T03:27:53.043Z,5.80
2019-01-06T03:30:29.099Z,5.80
2019-01-06T03:33:01.780Z,5.80
2019-01-06T03:35:32.077Z,5.70
2019-01-06T03:38:20.831Z,5.80
2019-01-06T03:41:07.017Z,5.90
2019-01-06T03:43:37.392Z,5.80
2019-01-06T03:46:19.448Z,5.80
2019-01-06T03:48:52.679Z,5.70
2019-01-06T03:51:28.914Z,5.70
2019-01-06T03:54:02.225Z,5.70
2019-01-06T03:56:47.536Z,5.70
2019-01-06T03:59:34.215Z,5.80
2019-01-06T04:02:21.006Z,5.80
2019-01-06T04:04:51.512Z,5.70
2019-01-06T04:07:38.517Z,5.80
2019-01-06T04:10:24.043Z,5.80
2019-01-06T04:12:54.287Z,5.80
2019-01-06T04:15:33.301Z,5.70
2019-01-06T04:18:19.746Z,5.80
2019-01-06T04:21:07.860Z,5.80
2019-01-06T04:23:40.719Z,5.80
2019-01-06T04:26:27.168Z,5.80
2019-01-06T04:29:13.612Z,5.80
2019-01-06T04:31:56.284Z,5.80
2019-01-06T04:34:26.604Z,5.80
2019-01-06T04:37:11.949Z,5.80
2019-01-06T04:39:44.962Z,5.90
2019-01-06T04:42:18.257Z,5.90
2019-01-06T04:44:51.651Z,5.90
2019-01-06T04:47:37.030Z,5.80
2019-01-06T04:50:09.106Z,5.90
2019-01-06T04:52:45.396Z,5.90
2019-01-06T04:55:18.236Z,5.90
2019-01-06T04:57:48.465Z,5.90
2019-01-06T05:00:18.686Z,5.90
2019-01-06T05:02:49.005Z,5.90
2019-01-06T05:05:30.958Z,5.90
2019-01-06T05:08:12.776Z,5.90
2019-01-06T05:10:55.060Z,5.90
2019-01-06T05:13:25.290Z,5.90
2019-01-06T05:16:04.686Z,6.00
2019-01-06T05:18:34.916Z,5.90
2019-01-06T05:21:05.590Z,5.80
2019-01-06T05:23:51.881Z,5.90
2019-01-06T05:26:25.122Z,5.90
2019-01-06T05:29:04.255Z,5.90
2019-01-06T05:31:51.023Z,5.90
2019-01-06T05:34:33.079Z,5.90
2019-01-06T05:37:21.773Z,5.90
2019-01-06T05:40:01.203Z,5.90
2019-01-06T05:42:34.339Z,5.90
2019-01-06T05:45:13.437Z,5.90
2019-01-06T05:47:43.704Z,5.90
2019-01-06T05:50:30.395Z,5.90
2019-01-06T05:53:15.933Z,5.90
2019-01-06T05:55:55.039Z,5.90
2019-01-06T05:58:41.969Z,5.90
2019-01-06T06:01:28.911Z,5.80
2019-01-06T06:04:14.564Z,5.80
2019-01-06T06:07:01.295Z,5.70
2019-01-06T06:09:47.555Z,5.70
2019-01-06T06:12:20.906Z,5.70
2019-01-06T06:15:00.423Z,5.70
2019-01-06T06:17:30.725Z,5.70
2019-01-06T06:20:17.546Z,5.70
2019-01-06T06:23:02.871Z,5.60
2019-01-06T06:25:48.122Z,5.70
2019-01-06T06:28:30.086Z,5.70
2019-01-06T06:31:03.052Z,5.70
2019-01-06T06:33:48.172Z,5.70
2019-01-06T06:36:24.024Z,5.70
2019-01-06T06:39:11.242Z,5.70
2019-01-06T06:41:41.481Z,5.70
2019-01-06T06:44:29.763Z,5.70
2019-01-06T06:47:00.035Z,5.70
2019-01-06T06:49:36.222Z,5.60
2019-01-06T06:52:06.875Z,5.70
2019-01-06T06:54:42.668Z,5.60
2019-01-06T06:57:49.409Z,5.60
2019-01-06T07:00:54.132Z,5.60
2019-01-06T07:03:33.260Z,5.60
2019-01-06T07:06:19.878Z,5.60
2019-01-06T07:08:50.166Z,5.60
2019-01-06T07:11:20.743Z,5.50
2019-01-06T07:13:51.366Z,5.50
2019-01-06T07:17:04.419Z,5.50
2019-01-06T07:19:37.456Z,5.50
2019-01-06T07:22:10.641Z,5.50
2019-01-06T07:24:57.874Z,5.60
2019-01-06T07:27:34.067Z,5.50
2019-01-06T07:30:04.363Z,5.50
2019-01-06T07:32:43.780Z,5.50
2019-01-06T07:35:28.950Z,5.60
2019-01-06T07:38:08.375Z,5.50
2019-01-06T07:40:50.385Z,5.50
2019-01-06T07:43:37.161Z,5.50
2019-01-06T07:46:23.740Z,5.50
2019-01-06T07:48:53.917Z,5.60
2019-01-06T07:51:24.238Z,5.50
2019-01-06T07:53:57.065Z,5.50
2019-01-06T07:56:42.633Z,5.50
2019-01-06T07:59:22.987Z,5.50
2019-01-06T08:01:59.172Z,5.50
2019-01-06T08:04:29.414Z,5.50
2019-01-06T08:07:08.568Z,5.60
2019-01-06T08:09:41.834Z,5.50
2019-01-06T08:12:21.191Z,5.50
2019-01-06T08:14:52.686Z,5.50
2019-01-06T08:17:34.765Z,5.50
2019-01-06T08:20:25.267Z,5.50
2019-01-06T08:23:04.910Z,5.50
2019-01-06T08:25:51.487Z,5.50
2019-01-06T08:28:36.859Z,5.50
2019-01-06T08:31:07.181Z,5.40
2019-01-06T08:33:40.499Z,5.40
2019-01-06T08:36:27.280Z,5.50
2019-01-06T08:39:00.297Z,5.50
2019-01-06T08:41:36.780Z,5.50
2019-01-06T08:44:25.097Z,5.50
2019-01-06T08:47:04.353Z,5.60
2019-01-06T08:49:51.059Z,5.60
2019-01-06T08:52:24.140Z,5.60
2019-01-06T08:55:11.059Z,5.60
2019-01-06T08:57:56.927Z,5.50
2019-01-06T09:00:43.566Z,5.50
2019-01-06T09:03:30.212Z,5.60
2019-01-06T09:06:16.622Z,5.60
2019-01-06T09:08:50.108Z,5.60
2019-01-06T09:11:38.445Z,5.70
2019-01-06T09:14:24.950Z,5.70
2019-01-06T09:16:57.940Z,5.80
2019-01-06T09:19:34.325Z,5.80
2019-01-06T09:22:21.261Z,5.90
2019-01-06T09:25:07.420Z,5.80
2019-01-06T09:27:38.187Z,5.90
2019-01-06T09:30:24.690Z,6.00
2019-01-06T09:33:00.533Z,5.90
2019-01-06T09:35:39.467Z,6.00
2019-01-06T09:38:26.137Z,5.90
2019-01-06T09:41:10.818Z,6.00
2019-01-06T09:43:41.052Z,6.00
2019-01-06T09:46:12.782Z,6.00
2019-01-06T09:49:00.111Z,6.00
2019-01-06T09:51:46.384Z,6.00
2019-01-06T09:54:32.905Z,6.10
2019-01-06T09:57:12.138Z,6.00
2019-01-06T10:00:00.569Z,6.10
2019-01-06T10:02:49.025Z,6.10
2019-01-06T10:05:35.966Z,6.20
2019-01-06T10:08:22.538Z,6.30
2019-01-06T10:10:58.827Z,6.40
2019-01-06T10:13:29.036Z,6.30
2019-01-06T10:16:15.303Z,6.40
2019-01-06T10:18:54.283Z,6.30
2019-01-06T10:21:40.786Z,6.30
2019-01-06T10:24:27.131Z,6.40
2019-01-06T10:27:13.723Z,6.40
2019-01-06T10:29:43.958Z,6.50
2019-01-06T10:32:32.708Z,6.70
2019-01-06T10:35:05.945Z,6.90
2019-01-06T10:37:45.131Z,6.90
2019-01-06T10:40:18.320Z,6.80
2019-01-06T10:42:49.052Z,6.70
2019-01-06T10:45:22.080Z,6.80
2019-01-06T10:47:56.983Z,6.80
2019-01-06T10:50:29.860Z,6.80
2019-01-06T10:53:16.760Z,6.90
2019-01-06T10:55:47.318Z,6.90
2019-01-06T10:58:20.314Z,7.00
2019-01-06T11:01:06.876Z,7.00
2019-01-06T11:03:37.210Z,7.00
2019-01-06T11:06:13.567Z,7.10
2019-01-06T11:08:46.533Z,7.20
2019-01-06T11:11:28.953Z,7.10
2019-01-06T11:14:15.116Z,7.20
2019-01-06T11:16:48.740Z,7.20
2019-01-06T11:19:35.155Z,7.10
2019-01-06T11:22:14.589Z,7.20
2019-01-06T11:24:45.245Z,7.20
2019-01-06T11:27:30.812Z,7.20
2019-01-06T11:30:17.474Z,7.10
2019-01-06T11:32:58.115Z,7.10
2019-01-06T11:35:31.664Z,7.20
2019-01-06T11:38:07.659Z,7.40
2019-01-06T11:40:44.524Z,7.30
2019-01-06T11:43:17.820Z,7.40
2019-01-06T11:45:56.982Z,7.40
2019-01-06T11:48:29.796Z,7.40
2019-01-06T11:51:00.461Z,7.30
2019-01-06T11:53:30.751Z,7.30
2019-01-06T11:56:13.202Z,7.40
2019-01-06T11:58:59.834Z,7.50
2019-01-06T12:01:30.525Z,7.60
2019-01-06T12:04:03.501Z,7.60
2019-01-06T12:06:45.784Z,7.60
2019-01-06T12:09:34.789Z,7.60
2019-01-06T12:12:21.885Z,7.70
2019-01-06T12:15:07.238Z,7.90
2019-01-06T12:17:52.485Z,7.80
2019-01-06T12:20:39.315Z,7.90
2019-01-06T12:23:09.632Z,8.10
2019-01-06T12:25:41.033Z,8.00
2019-01-06T12:28:11.308Z,8.10
2019-01-06T12:30:44.806Z,8.10
2019-01-06T12:33:30.182Z,8.20
2019-01-06T12:36:12.583Z,8.00
2019-01-06T12:38:48.894Z,7.70
2019-01-06T12:41:28.343Z,7.90
2019-01-06T12:44:16.937Z,8.10
2019-01-06T12:46:47.490Z,8.00
2019-01-06T12:49:29.768Z,8.30
2019-01-06T12:52:16.589Z,8.30
2019-01-06T12:54:58.942Z,8.00
2019-01-06T12:57:35.116Z,8.00
2019-01-06T13:00:12.678Z,8.10
2019-01-06T13:02:46.275Z,7.90
2019-01-06T13:05:19.053Z,8.00
2019-01-06T13:08:04.414Z,8.20
2019-01-06T13:10:37.719Z,8.10
2019-01-06T13:13:10.839Z,8.20
2019-01-06T13:15:43.632Z,8.00
2019-01-06T13:18:26.936Z,8.00
2019-01-06T13:21:06.005Z,7.80
2019-01-06T13:23:51.112Z,7.90
2019-01-06T13:26:39.755Z,7.90
2019-01-06T13:29:27.151Z,7.90
2019-01-06T13:32:12.776Z,7.80
2019-01-06T13:34:54.804Z,7.80
2019-01-06T13:37:41.528Z,7.90
2019-01-06T13:40:27.180Z,7.90
2019-01-06T13:43:00.439Z,7.90
2019-01-06T13:45:36.192Z,7.70
2019-01-06T13:48:15.674Z,7.70
2019-01-06T13:50:55.127Z,7.70
2019-01-06T13:53:28.452Z,7.90
2019-01-06T13:56:14.872Z,7.80
2019-01-06T13:59:01.220Z,7.80
2019-01-06T14:01:31.450Z,7.80
2019-01-06T14:04:01.704Z,7.90
2019-01-06T14:06:40.893Z,7.90
2019-01-06T14:09:13.977Z,7.80
2019-01-06T14:11:47.295Z,7.90
2019-01-06T14:14:20.273Z,7.90
2019-01-06T14:16:53.023Z,7.90
2019-01-06T14:19:41.379Z,7.80
2019-01-06T14:22:11.701Z,7.70
2019-01-06T14:24:44.894Z,7.80
2019-01-06T14:27:20.896Z,7.90
2019-01-06T14:29:53.855Z,7.80
2019-01-06T14:32:26.847Z,7.80
2019-01-06T14:35:14.390Z,7.80
2019-01-06T14:37:53.575Z,7.80
2019-01-06T14:40:23.927Z,7.70
2019-01-06T14:43:10.465Z,7.60
2019-01-06T14:45:46.865Z,7.70
2019-01-06T14:48:25.881Z,7.60
2019-01-06T14:50:56.317Z,7.50
2019-01-06T14:53:42.716Z,7.50
2019-01-06T14:56:12.990Z,7.60
2019-01-06T14:59:01.199Z,7.50
2019-01-06T15:01:37.587Z,7.50
2019-01-06T15:04:10.539Z,7.50
2019-01-06T15:06:46.995Z,7.50
2019-01-06T15:09:33.543Z,7.50
2019-01-06T15:12:12.876Z,7.40
2019-01-06T15:14:46.229Z,7.40
2019-01-06T15:17:28.826Z,7.30
2019-01-06T15:20:15.282Z,7.30
2019-01-06T15:23:02.398Z,7.20
2019-01-06T15:25:44.486Z,7.20
2019-01-06T15:28:14.966Z,7.20
2019-01-06T15:30:45.134Z,7.20
2019-01-06T15:33:18.166Z,7.20
2019-01-06T15:36:04.705Z,7.00
2019-01-06T15:38:41.182Z,7.00
2019-01-06T15:41:20.392Z,7.00
2019-01-06T15:43:53.472Z,6.90
2019-01-06T15:46:29.314Z,6.80
2019-01-06T15:49:08.548Z,6.80
2019-01-06T15:51:38.798Z,6.80
2019-01-06T15:54:25.482Z,6.70
2019-01-06T15:56:58.924Z,6.70
2019-01-06T15:59:29.437Z,6.70
2019-01-06T16:02:11.711Z,6.70
2019-01-06T16:04:47.880Z,6.60
2019-01-06T16:07:30.507Z,6.60
2019-01-06T16:10:06.888Z,6.60
2019-01-06T16:12:48.985Z,6.50
2019-01-06T16:15:21.944Z,6.50
2019-01-06T16:17:52.248Z,6.50
2019-01-06T16:20:25.381Z,6.40
2019-01-06T16:23:11.735Z,6.40
2019-01-06T16:25:58.441Z,6.40
2019-01-06T16:28:28.767Z,6.40
2019-01-06T16:30:59.092Z,6.30
2019-01-06T16:33:38.115Z,6.30
2019-01-06T16:36:08.438Z,6.30
2019-01-06T16:38:50.784Z,6.30
2019-01-06T16:41:30.688Z,6.30
2019-01-06T16:44:01.012Z,6.30
2019-01-06T16:46:37.601Z,6.40
2019-01-06T16:49:23.103Z,6.30
2019-01-06T16:51:56.130Z,6.30
2019-01-06T16:54:45.237Z,6.30
2019-01-06T16:57:15.499Z,6.30
2019-01-06T17:00:02.337Z,6.30
2019-01-06T17:02:41.600Z,6.20
2019-01-06T17:05:20.744Z,6.30
2019-01-06T17:08:07.417Z,6.30
2019-01-06T17:10:54.448Z,6.30
2019-01-06T17:13:41.351Z,6.20
2019-01-06T17:16:24.174Z,6.10
2019-01-06T17:19:09.785Z,6.20
2019-01-06T17:21:56.462Z,6.10
2019-01-06T17:24:41.835Z,6.10
2019-01-06T17:27:28.512Z,6.10
2019-01-06T17:30:04.570Z,6.10
2019-01-06T17:32:34.898Z,6.10
2019-01-06T17:35:05.262Z,6.10
2019-01-06T17:37:38.577Z,6.10
2019-01-06T17:40:22.760Z,6.10
2019-01-06T17:43:02.095Z,6.10
2019-01-06T17:45:49.376Z,6.10
2019-01-06T17:48:34.580Z,6.10
2019-01-06T17:51:21.190Z,6.10
2019-01-06T17:53:57.395Z,6.10
2019-01-06T17:56:33.864Z,6.10
2019-01-06T17:59:07.015Z,6.10
2019-01-06T18:01:40.214Z,6.00
2019-01-06T18:04:25.514Z,6.10
2019-01-06T18:07:12.526Z,6.00
2019-01-06T18:09:45.878Z,6.00
2019-01-06T18:12:25.108Z,6.10
2019-01-06T18:17:59.182Z,6.10
2019-01-06T18:20:45.784Z,6.10
2019-01-06T18:23:18.790Z,6.10
2019-01-06T18:25:49.047Z,6.10
2019-01-06T18:28:36.085Z,6.10
2019-01-06T18:31:09.453Z,6.10
2019-01-06T18:33:51.701Z,6.10
2019-01-06T18:36:38.531Z,6.10
2019-01-06T18:39:12.006Z,6.10
2019-01-06T18:41:45.196Z,6.10
2019-01-06T18:44:31.374Z,6.10
2019-01-06T18:47:07.369Z,6.10
2019-01-06T18:49:40.388Z,6.10
2019-01-06T18:52:27.098Z,6.10
2019-01-06T18:55:00.699Z,6.20
2019-01-06T18:57:31.022Z,6.10
2019-01-06T19:00:19.115Z,6.20
2019-01-06T19:02:49.713Z,6.20
2019-01-06T19:05:20.157Z,6.10
2019-01-06T19:08:06.822Z,6.10
2019-01-06T19:10:46.570Z,6.10
2019-01-06T19:13:33.315Z,6.10
2019-01-06T19:16:18.632Z,6.10
2019-01-06T19:19:07.260Z,6.00
2019-01-06T19:21:53.944Z,6.00
2019-01-06T19:24:36.365Z,6.00
2019-01-06T19:27:18.689Z,6.00
2019-01-06T19:30:03.948Z,6.00
2019-01-06T19:32:47.988Z,6.00
2019-01-06T19:35:34.551Z,6.00
2019-01-06T19:38:21.486Z,6.00
2019-01-06T19:40:52.116Z,6.00
2019-01-06T19:43:27.873Z,6.00
2019-01-06T19:46:04.331Z,6.10
2019-01-06T19:48:40.447Z,6.10
2019-01-06T19:51:13.489Z,6.10
2019-01-06T19:53:46.475Z,6.10
2019-01-06T19:56:34.968Z,6.10
2019-01-06T19:59:05.289Z,6.10
2019-01-06T20:01:44.727Z,6.00
2019-01-06T20:04:21.604Z,6.00
2019-01-06T20:06:54.383Z,6.00
2019-01-06T20:09:25.120Z,6.00
2019-01-06T20:12:07.170Z,5.90
2019-01-06T20:14:49.398Z,5.90
2019-01-06T20:17:22.445Z,5.90
2019-01-06T20:19:56.103Z,6.00
2019-01-06T20:22:41.988Z,6.00
2019-01-06T20:25:12.617Z,5.90
2019-01-06T20:27:45.502Z,6.00
2019-01-06T20:30:18.388Z,5.90
2019-01-06T20:33:05.341Z,5.90
2019-01-06T20:35:38.487Z,5.90
2019-01-06T20:38:09.060Z,5.90
2019-01-06T20:40:55.363Z,6.00
2019-01-06T20:43:31.659Z,5.90
2019-01-06T20:46:17.865Z,6.00
2019-01-06T20:48:57.534Z,6.00
2019-01-06T20:51:44.109Z,5.80
2019-01-06T20:54:20.539Z,5.90
2019-01-06T20:57:06.270Z,5.90
2019-01-06T20:59:36.530Z,5.90
2019-01-06T21:02:09.982Z,6.00
2019-01-06T21:04:40.303Z,5.90
2019-01-06T21:07:16.303Z,5.90
2019-01-06T21:10:03.522Z,5.90
2019-01-06T21:12:54.541Z,5.90
2019-01-06T21:15:24.813Z,5.70
2019-01-06T21:17:58.324Z,5.70
2019-01-06T21:20:45.318Z,5.70
2019-01-06T21:23:15.688Z,5.60
2019-01-06T21:25:45.910Z,5.50
2019-01-06T21:28:32.408Z,5.60
2019-01-06T21:31:02.600Z,5.50
2019-01-06T21:33:32.916Z,5.50
2019-01-06T21:36:18.143Z,5.50
2019-01-06T21:39:04.697Z,5.50
2019-01-06T21:41:44.181Z,5.60
2019-01-06T21:44:29.551Z,5.60
2019-01-06T21:47:08.361Z,5.60
2019-01-06T21:49:44.647Z,5.60
2019-01-06T21:52:20.694Z,5.70
2019-01-06T21:54:53.693Z,5.60
2019-01-06T21:57:42.067Z,5.70
2019-01-06T22:00:18.475Z,5.60
2019-01-06T22:03:00.678Z,5.50
2019-01-06T22:05:36.692Z,5.50
2019-01-06T22:08:23.093Z,5.50
2019-01-06T22:11:09.279Z,5.50
2019-01-06T22:13:55.726Z,5.40
2019-01-06T22:16:38.315Z,5.40
2019-01-06T22:19:25.045Z,5.50
2019-01-06T22:21:58.065Z,5.40
2019-01-06T22:24:31.030Z,5.30
2019-01-06T22:27:15.980Z,5.30
2019-01-06T22:30:02.437Z,5.30
2019-01-06T22:32:47.859Z,5.30
2019-01-06T22:35:24.938Z,5.30
2019-01-06T22:38:01.462Z,5.30
2019-01-06T22:40:34.608Z,5.30
2019-01-06T22:43:16.926Z,5.30
2019-01-06T22:46:03.911Z,5.20
2019-01-06T22:48:34.212Z,5.20
2019-01-06T22:51:20.794Z,5.20
2019-01-06T22:54:07.307Z,5.30
2019-01-06T22:56:43.401Z,5.20
2019-01-06T22:59:30.163Z,5.20
2019-01-06T23:02:03.295Z,5.20
2019-01-06T23:04:52.109Z,5.10
2019-01-06T23:07:39.352Z,5.10
2019-01-06T23:10:28.315Z,5.10
2019-01-06T23:13:04.548Z,5.20
2019-01-06T23:15:53.141Z,5.20
2019-01-06T23:18:29.591Z,5.10
2019-01-06T23:21:11.664Z,5.20
2019-01-06T23:23:56.658Z,5.10
2019-01-06T23:26:38.826Z,5.10
2019-01-06T23:29:25.682Z,5.10
2019-01-06T23:32:12.755Z,5.10
2019-01-06T23:35:00.704Z,5.10
2019-01-06T23:37:46.309Z,5.10
2019-01-06T23:40:22.046Z,5.10
2019-01-06T23:43:08.975Z,5.10
2019-01-06T23:45:55.219Z,5.20
2019-01-06T23:48:28.655Z,5.20
2019-01-06T23:51:10.941Z,5.20
2019-01-06T23:53:53.822Z,5.10
2019-01-06T23:56:40.140Z,5.10
2019-01-06T23:59:13.311Z,5.00
